Time;durP1;ratioP1;P1;durP2;ratioP2;P2;SDS_P1;SDS_P2;PMS_P1;PMS_P2;Temp;Humidity;BMP_temperature;BMP_pressure;BME280_temperature;BME280_humidity;BME280_pressure;Samples;Min_cycle;Max_cycle;Signal;HPM_P1;HPM_P2
2022/12/18 00:24:30;;;;;;;68.50;24.57;;;0.80;72.80;;;;;;6197859;22;20203;-96
2022/12/18 00:27:37;;;;;;;38.67;17.37;;;0.80;72.70;;;;;;6238840;23;20180;-95
2022/12/18 00:37:15;;;;;;;35.83;16.07;;;0.70;72.30;;;;;;6235904;23;20210;-95
2022/12/18 00:43:06;;;;;;;34.40;15.80;;;0.60;72.10;;;;;;6231190;23;20179;-95
2022/12/18 00:52:48;;;;;;;37.37;16.83;;;0.50;71.90;;;;;;6236845;23;20212;-96
2022/12/18 00:59:08;;;;;;;34.53;16.83;;;0.40;72.00;;;;;;6241070;23;20245;-96
2022/12/18 01:08:39;;;;;;;32.37;15.53;;;0.40;71.80;;;;;;6221175;22;20202;-96
2022/12/18 01:11:43;;;;;;;27.37;14.17;;;0.40;71.80;;;;;;6271942;22;20158;-96
2022/12/18 01:14:55;;;;;;;29.87;15.00;;;0.30;71.70;;;;;;6270494;22;20171;-96
2022/12/18 01:17:57;;;;;;;33.40;14.37;;;0.30;71.80;;;;;;6266969;22;20171;-95
2022/12/18 01:23:41;;;;;;;32.47;15.60;;;0.20;71.50;;;;;;6266387;22;20170;-96
2022/12/18 01:29:22;;;;;;;25.57;14.67;;;0.20;71.50;;;;;;6264622;23;20178;-94
2022/12/18 01:32:02;;;;;;;34.57;15.47;;;0.20;71.40;;;;;;6232583;23;20185;-95
2022/12/18 01:34:42;;;;;;;34.80;16.30;;;0.10;71.30;;;;;;6238989;23;20168;-96
2022/12/18 01:41:00;;;;;;;32.53;17.20;;;0.10;71.20;;;;;;6236706;23;20198;-96
2022/12/18 01:47:06;;;;;;;30.40;15.47;;;0.10;71.40;;;;;;6241665;22;20198;-95
2022/12/18 01:49:44;;;;;;;24.87;15.20;;;0.00;71.00;;;;;;6240846;22;20183;-96
2022/12/18 01:52:29;;;;;;;28.80;14.80;;;0.00;71.20;;;;;;6241418;23;20233;-96
2022/12/18 01:55:08;;;;;;;32.07;16.10;;;0.00;70.90;;;;;;6214952;23;20176;-96
2022/12/18 01:58:00;;;;;;;30.87;16.10;;;0.00;71.00;;;;;;6206203;23;20172;-94
2022/12/18 02:00:51;;;;;;;25.77;14.03;;;0.00;71.10;;;;;;6228823;23;20225;-95
2022/12/18 02:06:25;;;;;;;27.70;14.60;;;-0.10;71.00;;;;;;6204017;23;20195;-95
2022/12/18 02:09:10;;;;;;;30.23;15.93;;;-0.10;71.10;;;;;;6199131;23;20181;-95
2022/12/18 02:12:15;;;;;;;29.27;15.47;;;-0.10;71.10;;;;;;6199927;23;20617;-94
2022/12/18 02:15:03;;;;;;;28.60;14.70;;;-0.10;70.80;;;;;;6198747;23;20175;-94
2022/12/18 02:17:53;;;;;;;32.67;15.57;;;-0.10;70.70;;;;;;6200220;23;20224;-95
2022/12/18 02:20:37;;;;;;;29.67;14.70;;;-0.10;70.50;;;;;;6198854;23;20175;-94
2022/12/18 02:23:23;;;;;;;23.30;14.40;;;-0.20;70.70;;;;;;6198163;23;20182;-95
2022/12/18 02:26:26;;;;;;;30.63;15.63;;;-0.20;70.50;;;;;;6206568;23;20211;-94
2022/12/18 02:29:46;;;;;;;26.93;13.93;;;-0.20;70.60;;;;;;6199630;23;20175;-95
2022/12/18 02:32:21;;;;;;;52.10;19.67;;;-0.20;70.70;;;;;;6198205;22;20215;-94
2022/12/18 02:44:35;;;;;;;27.40;13.83;;;-0.30;70.90;;;;;;6201358;23;20157;-94
2022/12/18 03:00:15;;;;;;;28.50;15.60;;;-0.30;70.50;;;;;;6202347;23;20173;-95
2022/12/18 03:03:21;;;;;;;23.83;13.03;;;-0.40;70.40;;;;;;6206202;23;20184;-94
2022/12/18 03:09:01;;;;;;;30.73;16.33;;;-0.40;70.10;;;;;;6210386;23;20196;-94
2022/12/18 03:15:16;;;;;;;26.40;14.97;;;-0.40;70.10;;;;;;6212512;23;20198;-95
2022/12/18 03:28:30;;;;;;;30.17;14.67;;;-0.50;70.30;;;;;;6214958;23;20241;-94
2022/12/18 03:38:24;;;;;;;32.23;15.97;;;-0.50;71.20;;;;;;6213016;23;20166;-94
2022/12/18 03:41:30;;;;;;;28.97;15.07;;;-0.50;71.20;;;;;;6212707;23;20178;-95
2022/12/18 03:44:18;;;;;;;23.23;14.60;;;-0.50;71.50;;;;;;6199568;23;20162;-94
2022/12/18 04:02:59;;;;;;;26.60;14.97;;;-0.50;71.50;;;;;;6211722;23;20263;-94
2022/12/18 04:37:08;;;;;;;35.90;15.73;;;-0.50;71.20;;;;;;6234741;23;20159;-94
2022/12/18 04:43:03;;;;;;;21.80;13.90;;;-0.50;71.00;;;;;;6241320;23;20198;-93
2022/12/18 04:51:52;;;;;;;25.63;14.20;;;-0.60;70.90;;;;;;6237429;23;20177;-93
2022/12/18 04:55:04;;;;;;;26.27;15.10;;;-0.50;70.80;;;;;;6237973;23;20513;-94
2022/12/18 05:04:30;;;;;;;26.50;14.83;;;-0.60;70.70;;;;;;6231321;23;20551;-93
2022/12/18 05:13:40;;;;;;;24.93;14.17;;;-0.60;70.50;;;;;;6237005;23;20181;-93
2022/12/18 05:19:29;;;;;;;27.40;16.00;;;-0.60;70.40;;;;;;6234227;23;20510;-94
2022/12/18 05:25:17;;;;;;;30.17;15.63;;;-0.60;70.20;;;;;;6229883;23;20174;-95
2022/12/18 05:27:54;;;;;;;29.33;15.77;;;-0.60;70.40;;;;;;6234712;23;20587;-95
2022/12/18 05:33:48;;;;;;;25.90;15.47;;;-0.70;70.30;;;;;;6233011;23;20195;-94
2022/12/18 05:43:40;;;;;;;25.27;13.83;;;-0.70;70.20;;;;;;6236572;23;20274;-94
2022/12/18 05:46:42;;;;;;;27.40;14.83;;;-0.70;70.20;;;;;;6235276;23;20243;-94
2022/12/18 05:52:04;;;;;;;25.67;13.37;;;-0.70;69.80;;;;;;6235868;23;20226;-93
2022/12/18 05:54:58;;;;;;;27.10;13.50;;;-0.70;70.10;;;;;;6237067;23;20170;-94
2022/12/18 05:57:27;;;;;;;20.57;11.80;;;-0.70;69.80;;;;;;6240768;23;20234;-95
2022/12/18 06:00:28;;;;;;;24.67;12.90;;;-0.70;70.10;;;;;;6242202;23;20151;-94
2022/12/18 06:03:42;;;;;;;25.90;13.40;;;-0.70;70.30;;;;;;6242913;23;20223;-94
2022/12/18 06:10:01;;;;;;;23.33;10.93;;;-0.70;70.30;;;;;;6243444;23;20184;-93
2022/12/18 06:12:52;;;;;;;22.80;11.73;;;-0.70;70.40;;;;;;6217354;23;20183;-96
2022/12/18 06:22:34;;;;;;;30.23;14.03;;;-0.80;70.30;;;;;;6237463;23;20219;-94
2022/12/18 06:25:08;;;;;;;24.33;13.17;;;-0.70;70.20;;;;;;6240613;23;20173;-93
2022/12/18 06:27:38;;;;;;;20.37;11.30;;;-0.80;70.30;;;;;;6236575;23;20171;-93
2022/12/18 06:30:06;;;;;;;22.47;11.97;;;-0.70;70.00;;;;;;6227409;23;20168;-94
2022/12/18 06:32:40;;;;;;;23.90;11.57;;;-0.80;70.00;;;;;;6226194;23;20180;-94
2022/12/18 06:35:13;;;;;;;22.63;12.93;;;-0.80;70.30;;;;;;6225121;23;20170;-93
2022/12/18 06:37:53;;;;;;;20.27;11.80;;;-0.80;69.70;;;;;;6236561;23;20202;-94
2022/12/18 06:40:29;;;;;;;18.53;11.47;;;-0.80;69.80;;;;;;6233076;23;20176;-94
2022/12/18 06:43:07;;;;;;;23.93;11.73;;;-0.80;70.10;;;;;;6233504;23;20210;-94
2022/12/18 06:45:38;;;;;;;20.23;10.73;;;-0.80;69.90;;;;;;6241893;23;20155;-93
2022/12/18 06:48:11;;;;;;;19.63;11.37;;;-0.80;69.90;;;;;;6229371;23;20169;-93
2022/12/18 06:50:51;;;;;;;21.73;11.37;;;-0.80;69.80;;;;;;6224693;23;20165;-94
2022/12/18 06:53:28;;;;;;;21.90;11.30;;;-0.80;70.30;;;;;;6222905;23;20173;-94
2022/12/18 06:56:03;;;;;;;22.83;11.43;;;-0.80;70.20;;;;;;6223016;23;20174;-94
2022/12/18 06:58:32;;;;;;;22.83;11.17;;;-0.80;70.40;;;;;;6226262;23;20182;-93
2022/12/18 07:01:05;;;;;;;23.80;10.63;;;-0.70;70.10;;;;;;6226287;23;20172;-94
2022/12/18 07:06:52;;;;;;;21.60;11.13;;;-0.80;70.20;;;;;;6227754;23;20169;-93
2022/12/18 07:09:31;;;;;;;20.60;10.50;;;-0.70;70.30;;;;;;6242655;23;20163;-92
2022/12/18 07:12:01;;;;;;;23.20;11.57;;;-0.70;70.10;;;;;;6238859;23;20177;-94
2022/12/18 07:14:41;;;;;;;19.60;10.87;;;-0.80;70.00;;;;;;6235137;23;20214;-94
2022/12/18 07:17:18;;;;;;;18.10;10.00;;;-0.80;69.80;;;;;;6230992;23;20181;-93
2022/12/18 07:19:46;;;;;;;17.50;10.20;;;-0.80;69.90;;;;;;6231901;23;20185;-93
2022/12/18 07:22:27;;;;;;;22.87;11.23;;;-0.80;69.70;;;;;;6233525;23;20206;-93
2022/12/18 07:25:23;;;;;;;20.37;11.27;;;-0.80;70.10;;;;;;6236844;23;20173;-95
2022/12/18 07:27:56;;;;;;;18.03;10.07;;;-0.80;69.80;;;;;;6205987;23;20173;-92
2022/12/18 07:30:48;;;;;;;20.43;10.20;;;-0.80;69.70;;;;;;6231318;23;20211;-93
2022/12/18 08:02:13;;;;;;;20.93;10.27;;;-0.80;70.00;;;;;;5147604;28;20225;-94
2022/12/18 08:28:37;;;;;;;20.77;10.17;;;-0.80;70.60;;;;;;5051486;28;20235;-95
2022/12/18 08:38:13;;;;;;;21.93;10.20;;;-0.80;70.70;;;;;;5047082;28;20232;-95
2022/12/18 08:54:15;;;;;;;16.53;8.47;;;-0.60;71.50;;;;;;5015478;28;20206;-94
2022/12/18 09:02:40;;;;;;;17.43;8.73;;;-0.50;71.90;;;;;;5065851;28;20232;-94
2022/12/18 09:05:21;;;;;;;17.70;8.67;;;-0.50;71.70;;;;;;5074666;28;20232;-95
2022/12/18 09:10:59;;;;;;;17.17;8.67;;;-0.40;71.80;;;;;;5075179;28;20219;-95
2022/12/18 09:16:47;;;;;;;17.43;8.93;;;-0.30;72.20;;;;;;5070128;28;20201;-94
2022/12/18 09:19:21;;;;;;;14.50;8.60;;;-0.20;72.40;;;;;;5073031;28;20233;-96
2022/12/18 09:30:09;;;;;;;16.37;8.83;;;0.00;72.50;;;;;;5089630;28;20204;-95
2022/12/18 09:32:46;;;;;;;17.90;9.17;;;0.00;72.70;;;;;;5090048;28;20190;-95
2022/12/18 09:35:23;;;;;;;15.10;7.63;;;0.10;72.60;;;;;;5082606;28;20209;-94
2022/12/18 09:38:00;;;;;;;13.63;8.53;;;0.10;72.80;;;;;;5088563;28;20291;-96
2022/12/18 09:40:50;;;;;;;17.40;8.53;;;0.20;72.50;;;;;;5057131;28;20201;-96
2022/12/18 09:43:37;;;;;;;14.90;8.53;;;0.20;72.70;;;;;;5084290;28;20208;-96
2022/12/18 09:46:25;;;;;;;15.87;8.70;;;0.30;72.80;;;;;;5091601;28;20209;-95
2022/12/18 09:52:34;;;;;;;15.73;8.97;;;0.30;72.80;;;;;;5066349;28;20223;-96
2022/12/18 09:58:25;;;;;;;20.17;8.37;;;0.40;72.80;;;;;;5090062;28;20216;-95
2022/12/18 10:03:49;;;;;;;17.00;8.27;;;0.50;72.60;;;;;;5082630;28;20228;-96
2022/12/18 10:06:29;;;;;;;12.33;7.90;;;0.50;72.70;;;;;;5066569;28;20247;-96
2022/12/18 10:12:14;;;;;;;20.93;8.83;;;0.60;73.00;;;;;;5081543;28;20205;-96
2022/12/18 10:20:42;;;;;;;16.87;8.17;;;0.80;73.10;;;;;;5086412;28;20205;-96
2022/12/18 10:23:19;;;;;;;17.40;8.60;;;0.80;73.20;;;;;;5072301;28;20207;-96
2022/12/18 10:26:03;;;;;;;17.23;8.70;;;0.80;73.00;;;;;;5081568;28;20244;-95
2022/12/18 10:28:32;;;;;;;14.50;7.80;;;0.90;73.00;;;;;;5083699;28;20201;-95
2022/12/18 10:31:03;;;;;;;16.90;8.07;;;0.90;72.90;;;;;;5090628;28;20210;-95
2022/12/18 10:33:34;;;;;;;18.07;9.87;;;0.90;73.70;;;;;;5090897;28;20638;-96
2022/12/18 10:36:50;;;;;;;14.20;7.67;;;1.00;73.00;;;;;;5094458;28;20203;-96
2022/12/18 10:49:25;;;;;;;14.07;7.43;;;1.10;73.00;;;;;;5096507;28;20202;-94
2022/12/18 10:52:44;;;;;;;13.77;7.67;;;1.10;73.00;;;;;;5084813;28;20199;-96
2022/12/18 10:58:28;;;;;;;17.33;9.23;;;1.20;72.90;;;;;;5096627;28;20210;-96
2022/12/18 11:01:38;;;;;;;23.10;9.70;;;1.20;72.80;;;;;;5095204;28;20180;-95
2022/12/18 11:07:16;;;;;;;17.57;8.90;;;1.20;72.50;;;;;;5072914;28;20198;-96
2022/12/18 11:10:08;;;;;;;17.60;9.20;;;1.30;72.30;;;;;;5081128;28;20759;-96
2022/12/18 11:12:39;;;;;;;19.83;9.10;;;1.20;72.20;;;;;;5088772;28;20256;-96
2022/12/18 11:15:29;;;;;;;18.53;8.83;;;1.30;72.20;;;;;;5087950;28;20593;-96
2022/12/18 11:18:16;;;;;;;19.50;9.93;;;1.20;72.10;;;;;;5088539;28;20202;-96
2022/12/18 11:21:00;;;;;;;15.57;9.90;;;1.30;72.20;;;;;;5085725;28;20206;-96
2022/12/18 11:23:32;;;;;;;14.80;9.17;;;1.30;72.20;;;;;;5086070;28;20210;-96
2022/12/18 11:26:19;;;;;;;15.20;9.07;;;1.30;72.20;;;;;;5084796;28;20195;-96
2022/12/18 11:28:55;;;;;;;18.03;9.50;;;1.30;72.10;;;;;;5083205;28;20205;-96
2022/12/18 11:31:27;;;;;;;17.90;10.07;;;1.30;72.10;;;;;;5078651;28;20200;-96
2022/12/18 11:36:59;;;;;;;19.70;10.37;;;1.40;72.20;;;;;;5081252;28;20630;-95
2022/12/18 11:39:41;;;;;;;16.37;9.33;;;1.40;72.20;;;;;;5087482;28;20270;-95
2022/12/18 11:42:26;;;;;;;18.20;10.27;;;1.40;72.80;;;;;;5087474;28;20634;-96
2022/12/18 11:45:02;;;;;;;21.50;10.70;;;1.40;72.00;;;;;;5083147;28;20789;-96
2022/12/18 11:50:42;;;;;;;;;;;;;;;;;;;;;
2022/12/18 11:53:24;;;;;;;19.93;10.70;;;1.40;71.80;;;;;;5081646;28;20207;-96
2022/12/18 11:56:22;;;;;;;24.03;11.27;;;1.40;71.70;;;;;;5089035;28;20207;-95
2022/12/18 11:59:06;;;;;;;24.33;12.30;;;1.50;71.80;;;;;;5072687;28;20261;-96
2022/12/18 12:01:47;;;;;;;20.73;11.03;;;1.50;71.70;;;;;;5096172;28;20187;-96
2022/12/18 12:04:53;;;;;;;20.77;11.17;;;1.50;71.70;;;;;;5082755;28;20223;-96
2022/12/18 12:16:43;;;;;;;25.30;11.83;;;1.70;71.70;;;;;;5076662;28;20226;-96
2022/12/18 12:22:43;;;;;;;17.67;10.83;;;1.70;71.80;;;;;;5086556;28;20191;-96
2022/12/18 12:25:35;;;;;;;19.40;10.83;;;1.70;71.70;;;;;;5086014;28;20281;-96
2022/12/18 12:28:18;;;;;;;20.97;11.60;;;1.80;71.80;;;;;;5086893;28;20210;-96
2022/12/18 12:31:07;;;;;;;24.50;12.80;;;1.80;71.70;;;;;;5091093;28;20280;-96
2022/12/18 12:40:16;;;;;;;19.10;10.60;;;1.90;71.60;;;;;;5072427;28;20187;-95
2022/12/18 12:43:12;;;;;;;22.30;12.80;;;1.90;71.60;;;;;;5080584;28;20256;-95
2022/12/18 12:45:52;;;;;;;23.17;12.33;;;1.90;71.40;;;;;;5092554;28;20238;-96
2022/12/18 12:48:38;;;;;;;24.77;11.43;;;2.00;71.60;;;;;;5085567;28;20616;-96
2022/12/18 12:51:18;;;;;;;25.97;12.90;;;2.00;71.60;;;;;;5083775;28;20642;-96
2022/12/18 12:53:48;;;;;;;20.67;12.63;;;2.00;71.60;;;;;;5085564;28;20208;-96
2022/12/18 12:56:24;;;;;;;22.43;12.10;;;2.00;71.40;;;;;;5087805;28;20207;-96
2022/12/18 12:59:13;;;;;;;23.73;13.87;;;2.10;71.50;;;;;;5082702;28;20199;-96
2022/12/18 13:01:53;;;;;;;24.27;13.53;;;2.10;71.20;;;;;;5087248;28;20202;-95
2022/12/18 13:04:36;;;;;;;26.63;13.80;;;2.10;71.20;;;;;;5098316;28;20225;-96
2022/12/18 13:07:19;;;;;;;26.33;14.67;;;2.10;71.10;;;;;;5092339;28;20204;-96
2022/12/18 13:10:15;;;;;;;28.37;14.83;;;2.10;71.10;;;;;;5085285;28;20197;-96
2022/12/18 13:16:40;;;;;;;27.23;14.27;;;2.20;71.10;;;;;;5088809;28;20196;-96
2022/12/18 13:19:27;;;;;;;22.47;13.47;;;2.20;71.10;;;;;;5068478;28;20261;-96
2022/12/18 13:24:45;;;;;;;29.10;15.70;;;2.20;70.70;;;;;;5082140;28;20639;-95
2022/12/18 13:28:01;;;;;;;24.23;14.30;;;2.20;70.80;;;;;;5085201;28;20245;-96
2022/12/18 13:30:49;;;;;;;23.57;12.43;;;2.20;71.00;;;;;;5085759;28;20557;-96
2022/12/18 13:33:48;;;;;;;26.77;14.87;;;2.20;71.00;;;;;;5078336;28;20801;-95
2022/12/18 13:36:34;;;;;;;28.27;14.13;;;2.20;70.80;;;;;;5083637;28;20198;-95
2022/12/18 13:39:36;;;;;;;25.20;13.10;;;2.20;71.00;;;;;;5068269;28;20207;-96
2022/12/18 13:45:46;;;;;;;24.40;13.77;;;2.20;70.80;;;;;;5063189;28;20315;-96
2022/12/18 13:48:36;;;;;;;25.60;14.53;;;2.20;70.80;;;;;;5065872;28;20545;-95
2022/12/18 13:51:08;;;;;;;22.57;13.07;;;2.20;70.90;;;;;;5074407;28;20202;-96
2022/12/18 13:53:47;;;;;;;28.90;13.67;;;2.20;70.80;;;;;;5085584;28;21002;-96
2022/12/18 13:56:31;;;;;;;30.37;14.27;;;2.30;70.90;;;;;;5079662;28;20226;-96
2022/12/18 13:59:24;;;;;;;26.43;13.57;;;2.30;70.80;;;;;;5084341;28;20200;-96
2022/12/18 14:07:25;;;;;;;30.43;15.30;;;2.30;70.50;;;;;;5084454;28;20227;-95
2022/12/18 14:10:28;;;;;;;27.33;14.67;;;2.30;70.60;;;;;;5086309;28;20252;-95
2022/12/18 14:13:19;;;;;;;25.73;13.40;;;2.30;70.50;;;;;;5082281;28;20203;-96
2022/12/18 14:16:19;;;;;;;27.87;13.73;;;2.30;70.60;;;;;;5088544;28;20640;-96
2022/12/18 14:24:25;;;;;;;26.23;14.43;;;2.40;70.40;;;;;;5066307;28;20652;-96
2022/12/18 14:27:22;;;;;;;27.47;14.63;;;2.40;70.40;;;;;;5067442;28;20223;-94
2022/12/18 14:29:53;;;;;;;26.03;13.93;;;2.30;70.40;;;;;;5066203;28;20691;-96
2022/12/18 14:32:22;;;;;;;27.90;15.40;;;2.40;70.40;;;;;;5066349;28;20216;-96
2022/12/18 14:34:59;;;;;;;27.47;14.27;;;2.40;70.50;;;;;;5070957;28;20202;-96
2022/12/18 14:37:30;;;;;;;25.40;13.90;;;2.30;70.40;;;;;;5081939;28;20199;-95
2022/12/18 14:40:08;;;;;;;29.37;15.17;;;2.30;70.30;;;;;;5080752;28;20207;-95
2022/12/18 14:45:49;;;;;;;28.83;15.60;;;2.40;70.60;;;;;;5078764;28;20245;-94
2022/12/18 14:48:21;;;;;;;24.13;12.97;;;2.30;70.50;;;;;;5080349;28;20207;-95
2022/12/18 14:51:00;;;;;;;32.03;15.17;;;2.30;70.30;;;;;;5062723;28;20207;-94
2022/12/18 14:53:38;;;;;;;23.63;13.43;;;2.40;70.70;;;;;;5060900;28;20239;-94
2022/12/18 14:56:18;;;;;;;28.73;14.63;;;2.40;71.40;;;;;;5065046;28;20210;-94
2022/12/18 14:59:16;;;;;;;28.07;15.73;;;2.40;70.50;;;;;;5080638;28;20212;-96
2022/12/18 15:02:05;;;;;;;35.50;15.57;;;2.40;70.50;;;;;;5088677;28;20190;-95
2022/12/18 15:04:43;;;;;;;20.23;11.80;;;2.40;70.50;;;;;;5089338;28;20203;-96
2022/12/18 15:07:26;;;;;;;26.40;14.90;;;2.40;70.40;;;;;;5081897;28;20604;-96
2022/12/18 15:10:19;;;;;;;25.70;13.90;;;2.40;70.50;;;;;;5083742;28;20198;-96
2022/12/18 15:12:51;;;;;;;24.90;13.67;;;2.40;70.60;;;;;;5084643;28;20210;-95
2022/12/18 15:15:50;;;;;;;24.50;14.10;;;2.40;70.40;;;;;;5062031;28;20286;-95
2022/12/18 15:18:27;;;;;;;28.07;14.47;;;2.40;70.60;;;;;;5081961;28;20202;-95
2022/12/18 15:21:13;;;;;;;30.90;15.30;;;2.40;70.60;;;;;;5086508;28;20275;-95
2022/12/18 15:23:59;;;;;;;30.83;15.80;;;2.40;70.40;;;;;;5078430;28;20205;-96
2022/12/18 15:26:39;;;;;;;27.53;13.10;;;2.50;70.60;;;;;;5079282;28;20257;-96
2022/12/18 15:29:30;;;;;;;26.80;13.87;;;2.40;70.50;;;;;;5079659;28;20195;-95
2022/12/18 15:32:18;;;;;;;31.77;14.57;;;2.40;70.20;;;;;;5079484;28;20696;-96
2022/12/18 15:35:04;;;;;;;23.93;13.73;;;2.50;70.70;;;;;;5060685;28;20207;-95
2022/12/18 15:37:31;;;;;;;25.33;13.07;;;2.50;70.70;;;;;;5077695;28;20634;-95
2022/12/18 15:40:09;;;;;;;27.67;13.87;;;2.40;70.40;;;;;;5077641;28;20199;-95
2022/12/18 15:45:40;;;;;;;;;;;;;;;;;;;;;
2022/12/18 15:48:20;;;;;;;29.03;14.13;;;2.50;70.70;;;;;;5058564;28;20199;-95
2022/12/18 15:50:56;;;;;;;28.30;14.40;;;2.50;70.70;;;;;;5058428;28;20608;-93
2022/12/18 15:59:57;;;;;;;24.47;13.23;;;2.50;70.80;;;;;;5074804;28;20567;-95
2022/12/18 16:02:54;;;;;;;34.57;15.73;;;2.50;70.80;;;;;;4991334;28;20686;-96
2022/12/18 16:08:47;;;;;;;27.13;14.23;;;2.60;70.90;;;;;;5088941;28;20195;-96
2022/12/18 16:11:45;;;;;;;26.03;13.90;;;2.60;71.00;;;;;;5065487;28;20198;-96
2022/12/18 16:14:31;;;;;;;28.97;14.20;;;2.50;70.90;;;;;;5069442;28;20199;-95
2022/12/18 16:20:21;;;;;;;28.43;13.77;;;2.60;71.30;;;;;;5083566;28;20202;-96
2022/12/18 16:22:52;;;;;;;30.57;14.47;;;2.60;71.70;;;;;;5080668;28;20267;-95
2022/12/18 16:25:40;;;;;;;25.07;13.50;;;2.60;71.60;;;;;;5085096;28;20231;-95
2022/12/18 16:28:25;;;;;;;31.90;14.17;;;2.60;72.10;;;;;;5085849;28;20264;-96
2022/12/18 16:34:27;;;;;;;27.10;13.80;;;2.60;72.50;;;;;;5082626;28;20341;-96
2022/12/18 16:39:59;;;;;;;21.77;12.30;;;2.70;72.30;;;;;;5082091;28;20282;-96
2022/12/18 16:48:30;;;;;;;26.40;14.17;;;2.70;72.80;;;;;;5075666;28;20212;-95
2022/12/18 16:51:35;;;;;;;25.27;13.23;;;2.70;72.70;;;;;;5081138;28;20210;-94
2022/12/18 16:54:21;;;;;;;26.40;12.73;;;2.70;73.60;;;;;;5083937;28;20211;-96
2022/12/18 16:57:21;;;;;;;32.00;14.40;;;2.80;73.70;;;;;;5083708;28;20561;-95
2022/12/18 16:59:57;;;;;;;32.93;15.37;;;2.80;73.30;;;;;;5082443;28;20229;-95
2022/12/18 17:02:32;;;;;;;27.63;13.70;;;2.80;73.90;;;;;;5085053;28;20214;-96
2022/12/18 17:05:15;;;;;;;27.80;13.97;;;2.80;74.20;;;;;;5086806;28;20720;-96
2022/12/18 17:07:57;;;;;;;27.30;14.30;;;2.90;74.20;;;;;;5088041;28;20233;-96
2022/12/18 17:13:20;;;;;;;30.67;13.73;;;2.90;74.80;;;;;;5078400;28;20206;-94
2022/12/18 17:15:57;;;;;;;22.17;12.53;;;2.90;75.20;;;;;;5065146;28;20204;-96
2022/12/18 17:18:34;;;;;;;29.50;13.70;;;2.90;75.40;;;;;;5060301;28;20230;-94
2022/12/18 17:21:08;;;;;;;23.53;12.43;;;3.00;75.50;;;;;;5064644;28;20195;-96
2022/12/18 17:24:01;;;;;;;30.90;14.10;;;3.00;75.60;;;;;;5063295;28;20251;-94
2022/12/18 17:26:31;;;;;;;29.00;14.30;;;3.00;75.30;;;;;;5069860;28;20360;-95
2022/12/18 17:32:09;;;;;;;25.53;12.57;;;3.10;75.60;;;;;;5080444;28;20210;-95
2022/12/18 17:34:50;;;;;;;28.47;13.93;;;3.10;75.80;;;;;;5081626;28;20241;-96
2022/12/18 17:37:20;;;;;;;26.20;13.13;;;3.10;76.20;;;;;;5078601;28;20422;-96
2022/12/18 17:39:54;;;;;;;25.67;12.43;;;3.10;76.30;;;;;;5082776;28;20195;-95
2022/12/18 17:42:46;;;;;;;27.67;14.07;;;3.10;76.50;;;;;;5067291;28;20242;-96
2022/12/18 17:49:24;;;;;;;22.13;12.97;;;3.10;76.50;;;;;;5090036;28;20203;-96
2022/12/18 17:55:31;;;;;;;22.93;12.33;;;3.20;76.50;;;;;;5086571;28;20242;-96
2022/12/18 18:26:21;;;;;;;24.47;13.97;;;3.40;77.80;;;;;;5067166;28;20327;-96
2022/12/18 18:29:14;;;;;;;25.47;13.70;;;3.40;78.30;;;;;;5065610;28;20567;-95
2022/12/18 18:31:52;;;;;;;23.33;12.43;;;3.40;78.50;;;;;;5060573;28;20258;-96
2022/12/18 18:37:14;;;;;;;26.73;14.23;;;3.40;79.00;;;;;;5062414;28;20262;-94
2022/12/18 18:39:46;;;;;;;30.83;14.33;;;3.40;79.40;;;;;;5062510;28;20649;-96
2022/12/18 18:42:24;;;;;;;25.20;13.00;;;3.40;79.50;;;;;;5073738;28;20204;-94
2022/12/18 18:45:01;;;;;;;25.80;13.60;;;3.50;80.10;;;;;;5075760;28;20203;-94
2022/12/18 18:50:35;;;;;;;28.27;13.63;;;3.50;80.80;;;;;;5061270;28;20204;-93
2022/12/18 18:53:05;;;;;;;27.50;14.33;;;3.50;81.00;;;;;;5061621;28;20707;-93
2022/12/18 18:55:37;;;;;;;29.30;13.77;;;3.60;81.40;;;;;;5063251;28;20223;-92
2022/12/18 18:58:12;;;;;;;28.07;13.90;;;3.60;80.60;;;;;;5062463;28;20230;-92
2022/12/18 19:01:02;;;;;;;24.57;13.77;;;3.60;80.50;;;;;;5078660;28;20301;-93
2022/12/18 19:03:32;;;;;;;22.37;11.40;;;3.70;80.90;;;;;;5079767;28;20221;-92
2022/12/18 19:06:07;;;;;;;30.23;14.27;;;3.60;80.90;;;;;;5078892;28;20642;-93
2022/12/18 19:08:40;;;;;;;30.03;13.87;;;3.70;80.80;;;;;;5081573;28;20207;-92
2022/12/18 19:13:19;;;;;;;31.67;14.53;;;3.70;82.00;;;;;;5077771;28;20183;-92
2022/12/18 19:13:58;;;;;;;28.73;13.80;;;3.70;81.70;;;;;;5077084;28;20204;-93
2022/12/18 19:16:34;;;;;;;27.83;14.33;;;3.70;81.90;;;;;;5076784;28;20255;-92
2022/12/18 19:19:06;;;;;;;26.33;13.67;;;3.70;82.40;;;;;;5084085;28;20179;-92
2022/12/18 19:21:37;;;;;;;19.67;12.33;;;3.80;82.20;;;;;;5087444;28;20290;-91
2022/12/18 19:24:08;;;;;;;26.17;13.87;;;3.80;82.50;;;;;;5084092;28;20199;-92
2022/12/18 19:32:23;;;;;;;29.77;14.03;;;3.80;82.50;;;;;;5082343;28;20231;-93
2022/12/18 19:34:56;;;;;;;22.57;12.43;;;3.80;82.50;;;;;;5087813;28;20295;-93
2022/12/18 19:37:24;;;;;;;25.90;13.43;;;3.90;83.10;;;;;;5088000;28;20215;-93
2022/12/18 19:39:58;;;;;;;27.87;13.43;;;3.90;82.60;;;;;;5068055;28;20569;-92
2022/12/18 19:42:30;;;;;;;21.93;12.43;;;3.90;83.40;;;;;;5086309;28;20203;-91
2022/12/18 19:47:52;;;;;;;23.33;12.77;;;4.00;83.60;;;;;;5071412;28;20265;-94
2022/12/18 19:50:20;;;;;;;27.47;14.07;;;4.00;84.20;;;;;;5078300;28;20197;-93
2022/12/18 19:52:47;;;;;;;29.70;14.33;;;4.00;83.70;;;;;;5075854;28;20413;-95
2022/12/18 19:55:17;;;;;;;28.83;13.90;;;4.00;83.60;;;;;;5080290;28;20566;-92
2022/12/18 19:57:49;;;;;;;28.03;14.10;;;4.00;83.30;;;;;;5080660;28;20218;-92
2022/12/18 20:00:18;;;;;;;27.57;13.73;;;4.00;83.90;;;;;;5078953;28;20203;-93
2022/12/18 20:02:56;;;;;;;24.87;13.00;;;4.00;83.80;;;;;;5082493;28;20799;-93
2022/12/18 20:05:26;;;;;;;28.03;14.03;;;4.00;84.20;;;;;;5075953;28;20815;-93
2022/12/18 20:07:54;;;;;;;25.33;12.80;;;4.10;84.00;;;;;;5076920;28;20224;-94
2022/12/18 20:10:23;;;;;;;24.13;12.70;;;4.10;84.40;;;;;;5080906;28;20296;-93
2022/12/18 20:12:58;;;;;;;23.03;12.93;;;4.10;84.50;;;;;;5080856;28;20203;-93
2022/12/18 20:18:32;;;;;;;26.00;13.47;;;4.10;84.80;;;;;;5040632;28;20207;-94
2022/12/18 20:21:01;;;;;;;28.60;14.07;;;4.10;84.80;;;;;;5086808;28;20203;-93
2022/12/18 20:23:28;;;;;;;19.93;11.53;;;4.20;84.60;;;;;;5065877;28;20613;-95
2022/12/18 20:26:00;;;;;;;26.67;12.67;;;4.20;84.90;;;;;;5060757;28;20291;-94
2022/12/18 20:28:33;;;;;;;24.20;12.27;;;4.20;85.00;;;;;;5071493;28;20228;-94
2022/12/18 20:31:05;;;;;;;25.20;12.53;;;4.20;84.80;;;;;;5082481;28;20204;-94
2022/12/18 20:33:36;;;;;;;23.77;12.83;;;4.20;84.80;;;;;;5080409;28;20199;-94
2022/12/18 20:36:13;;;;;;;23.50;11.97;;;4.20;84.70;;;;;;5076162;28;20294;-95
2022/12/18 20:38:41;;;;;;;25.73;13.10;;;4.20;85.10;;;;;;5067711;28;20233;-93
2022/12/18 20:41:14;;;;;;;25.03;12.63;;;4.30;85.20;;;;;;5071848;28;20204;-94
2022/12/18 20:43:43;;;;;;;22.03;12.07;;;4.30;84.90;;;;;;5079422;28;20731;-94
2022/12/18 20:46:14;;;;;;;24.03;12.47;;;4.30;85.40;;;;;;5077873;28;20203;-95
2022/12/18 20:48:46;;;;;;;28.63;13.83;;;4.30;85.40;;;;;;5075116;28;20200;-94
2022/12/18 20:51:17;;;;;;;28.53;13.73;;;4.30;85.50;;;;;;5078548;28;20211;-95
2022/12/18 20:53:46;;;;;;;24.93;12.13;;;4.30;86.20;;;;;;5073965;28;20660;-96
2022/12/18 20:56:20;;;;;;;27.13;12.50;;;4.30;86.20;;;;;;5080943;28;20219;-95
2022/12/18 20:58:51;;;;;;;24.93;12.43;;;4.40;86.30;;;;;;5081114;28;20298;-95
2022/12/18 21:01:22;;;;;;;24.73;12.93;;;4.30;86.20;;;;;;5080896;28;20210;-95
2022/12/18 21:03:55;;;;;;;24.40;12.50;;;4.30;86.50;;;;;;5062044;28;20214;-94
2022/12/18 21:06:27;;;;;;;23.47;12.53;;;4.40;86.40;;;;;;5075412;28;20204;-94
2022/12/18 21:08:57;;;;;;;25.17;12.07;;;4.40;86.60;;;;;;5060559;28;20278;-94
2022/12/18 21:14:23;;;;;;;22.63;11.87;;;4.40;86.60;;;;;;5061296;28;20197;-91
2022/12/18 21:16:52;;;;;;;23.70;12.20;;;4.40;86.30;;;;;;5076166;28;20233;-93
2022/12/18 21:19:30;;;;;;;26.23;13.40;;;4.40;86.60;;;;;;5080599;28;20712;-92
2022/12/18 21:21:58;;;;;;;22.83;12.07;;;4.50;87.60;;;;;;5066674;28;20235;-92
2022/12/18 21:24:26;;;;;;;25.90;12.50;;;4.50;86.60;;;;;;5083829;28;20203;-95
2022/12/18 21:26:57;;;;;;;24.50;11.70;;;4.50;86.90;;;;;;5083722;28;20223;-92
2022/12/18 21:29:26;;;;;;;25.40;11.80;;;4.50;86.70;;;;;;5082967;28;20236;-93
2022/12/18 21:31:55;;;;;;;23.67;11.53;;;4.50;86.90;;;;;;5082786;28;20210;-92
2022/12/18 21:34:26;;;;;;;29.33;13.67;;;4.50;87.00;;;;;;5081416;28;20214;-93
2022/12/18 21:37:02;;;;;;;22.23;11.73;;;4.50;87.80;;;;;;5079318;28;20204;-92
2022/12/18 21:39:34;;;;;;;23.37;12.67;;;4.60;88.20;;;;;;5065813;28;20610;-92
2022/12/18 21:44:49;;;;;;;21.40;11.27;;;4.60;88.70;;;;;;5061492;28;20204;-92
2022/12/18 21:47:19;;;;;;;23.57;11.77;;;4.60;88.40;;;;;;5063300;28;20212;-92
2022/12/18 21:49:47;;;;;;;23.13;11.43;;;4.60;89.30;;;;;;5082388;28;20207;-92
2022/12/18 21:52:17;;;;;;;23.37;11.83;;;4.60;89.40;;;;;;5079978;28;20255;-93